createdAt,value
2022-12-11T00:00:55.399Z,93.89
2022-12-11T00:01:55.218Z,93.80
2022-12-11T00:02:55.080Z,93.61
2022-12-11T00:03:55.628Z,93.51
2022-12-11T00:04:54.924Z,93.42
2022-12-11T00:05:55.024Z,93.51
2022-12-11T00:06:54.853Z,93.51
2022-12-11T00:07:54.879Z,93.70
2022-12-11T00:08:54.923Z,93.80
2022-12-11T00:09:54.857Z,93.61
2022-12-11T00:10:54.699Z,93.80
2022-12-11T00:11:54.857Z,93.70
2022-12-11T00:12:54.529Z,93.70
2022-12-11T00:13:54.476Z,93.80
2022-12-11T00:14:54.882Z,93.80
2022-12-11T00:15:54.475Z,93.80
2022-12-11T00:16:54.566Z,93.70
2022-12-11T00:17:54.296Z,93.61
2022-12-11T00:18:54.599Z,93.70
2022-12-11T00:19:54.184Z,93.99
2022-12-11T00:20:54.309Z,93.70
2022-12-11T00:21:54.091Z,93.37
2022-12-11T00:22:54.401Z,92.99
2022-12-11T00:23:53.998Z,93.23
2022-12-11T00:24:54.184Z,93.75
2022-12-11T00:25:54.343Z,93.75
2022-12-11T00:26:53.937Z,93.75
2022-12-11T00:27:53.989Z,93.46
2022-12-11T00:28:53.770Z,93.75
2022-12-11T00:29:53.858Z,93.46
2022-12-11T00:30:53.690Z,93.56
2022-12-11T00:31:53.871Z,94.04
2022-12-11T00:32:53.581Z,93.65
2022-12-11T00:33:53.519Z,94.23
2022-12-11T00:34:53.637Z,93.75
2022-12-11T00:35:53.406Z,94.04
2022-12-11T00:36:53.605Z,94.04
2022-12-11T00:37:53.304Z,93.94
2022-12-11T00:38:53.422Z,94.04
2022-12-11T00:39:53.266Z,93.65
2022-12-11T00:40:53.641Z,94.13
2022-12-11T00:41:53.135Z,93.75
2022-12-11T00:42:53.302Z,94.42
2022-12-11T00:43:53.024Z,93.65
2022-12-11T00:44:53.166Z,94.13
2022-12-11T00:45:52.983Z,93.75
2022-12-11T00:46:53.064Z,93.75
2022-12-11T00:47:52.830Z,94.32
2022-12-11T00:48:53.075Z,94.32
2022-12-11T00:49:52.941Z,94.42
2022-12-11T00:50:52.929Z,94.60
2022-12-11T00:51:52.632Z,94.23
2022-12-11T00:52:52.705Z,94.79
2022-12-11T00:53:52.556Z,94.32
2022-12-11T00:54:52.723Z,94.60
2022-12-11T00:55:52.535Z,94.42
2022-12-11T00:56:53.634Z,94.98
2022-12-11T00:57:52.347Z,94.60
2022-12-11T00:58:52.331Z,94.51
2022-12-11T00:59:52.258Z,94.70
2022-12-11T01:00:52.349Z,95.26
2022-12-11T01:01:52.407Z,95.36
2022-12-11T01:02:52.397Z,95.17
2022-12-11T01:03:52.116Z,94.89
2022-12-11T01:04:52.194Z,94.79
2022-12-11T01:05:51.933Z,94.70
2022-12-11T01:06:52.390Z,94.70
2022-12-11T01:07:51.862Z,94.42
2022-12-11T01:08:52.083Z,94.23
2022-12-11T01:09:51.876Z,93.94
2022-12-11T01:10:52.010Z,93.65
2022-12-11T01:11:51.744Z,94.04
2022-12-11T01:12:55.211Z,93.94
2022-12-11T01:13:51.544Z,94.32
2022-12-11T01:14:51.641Z,94.42
2022-12-11T01:15:51.465Z,94.32
2022-12-11T01:16:51.507Z,94.04
2022-12-11T01:17:51.520Z,94.13
2022-12-11T01:18:51.514Z,93.89
2022-12-11T01:19:51.242Z,94.04
2022-12-11T01:20:52.299Z,93.99
2022-12-11T01:21:51.191Z,94.04
2022-12-11T01:22:51.324Z,94.04
2022-12-11T01:23:51.149Z,93.70
2022-12-11T01:24:52.136Z,94.27
2022-12-11T01:25:50.950Z,93.89
2022-12-11T01:26:51.940Z,93.70
2022-12-11T01:27:50.935Z,94.18
2022-12-11T01:28:51.120Z,93.32
2022-12-11T01:29:50.752Z,93.51
2022-12-11T01:31:11.785Z,93.61
2022-12-11T01:31:50.696Z,93.32
2022-12-11T01:32:51.764Z,93.61
2022-12-11T01:33:50.686Z,93.51
2022-12-11T01:34:50.962Z,93.42
2022-12-11T01:35:51.236Z,93.51
2022-12-11T01:36:50.768Z,93.51
2022-12-11T01:37:50.364Z,93.42
2022-12-11T01:38:50.588Z,93.80
2022-12-11T01:39:50.481Z,93.99
2022-12-11T01:40:50.450Z,93.99
2022-12-11T01:41:50.235Z,93.89
2022-12-11T01:42:52.654Z,93.42
2022-12-11T01:43:50.056Z,93.61
2022-12-11T01:44:50.216Z,93.42
2022-12-11T01:45:50.010Z,93.32
2022-12-11T01:46:50.231Z,92.47
2022-12-11T01:47:49.897Z,92.29
2022-12-11T01:48:50.078Z,92.76
2022-12-11T01:49:49.791Z,92.38
2022-12-11T01:50:49.758Z,92.19
2022-12-11T01:51:49.815Z,92.57
2022-12-11T01:52:49.760Z,92.52
2022-12-11T01:53:49.604Z,92.38
2022-12-11T01:54:49.571Z,92.66
2022-12-11T01:55:49.465Z,92.80
2022-12-11T01:56:49.587Z,93.56
2022-12-11T01:57:49.739Z,93.61
2022-12-11T01:58:49.409Z,93.70
2022-12-11T01:59:49.341Z,94.18
2022-12-11T02:00:49.439Z,94.56
2022-12-11T02:01:49.166Z,94.93
2022-12-11T02:02:49.272Z,95.21
2022-12-11T02:03:49.382Z,95.59
2022-12-11T02:04:49.228Z,95.97
2022-12-11T02:05:49.015Z,95.50
2022-12-11T02:06:49.071Z,95.31
2022-12-11T02:07:48.923Z,95.88
2022-12-11T02:08:48.899Z,95.03
2022-12-11T02:09:48.854Z,94.65
2022-12-11T02:10:49.066Z,94.93
2022-12-11T02:11:48.727Z,94.18
2022-12-11T02:12:48.681Z,94.27
2022-12-11T02:13:48.738Z,94.27
2022-12-11T02:14:49.742Z,94.56
2022-12-11T02:15:48.490Z,94.08
2022-12-11T02:16:48.658Z,94.37
2022-12-11T02:17:48.429Z,94.08
2022-12-11T02:18:48.340Z,93.89
2022-12-11T02:19:48.453Z,93.99
2022-12-11T02:20:48.329Z,93.61
2022-12-11T02:21:48.228Z,94.08
2022-12-11T02:22:48.516Z,94.18
2022-12-11T02:23:48.110Z,94.37
2022-12-11T02:24:48.024Z,94.18
2022-12-11T02:25:48.175Z,94.27
2022-12-11T02:26:48.165Z,94.46
2022-12-11T02:27:47.888Z,94.46
2022-12-11T02:28:47.990Z,94.46
2022-12-11T02:29:47.797Z,94.37
2022-12-11T02:30:47.744Z,94.46
2022-12-11T02:31:47.815Z,94.18
2022-12-11T02:32:47.837Z,93.89
2022-12-11T02:33:47.687Z,93.51
2022-12-11T02:34:47.675Z,93.70
2022-12-11T02:35:47.595Z,93.51
2022-12-11T02:36:47.437Z,93.04
2022-12-11T02:37:47.492Z,93.04
2022-12-11T02:38:47.449Z,93.04
2022-12-11T02:39:47.340Z,93.18
2022-12-11T02:40:47.484Z,92.61
2022-12-11T02:41:47.227Z,92.61
2022-12-11T02:42:47.143Z,92.61
2022-12-11T02:43:47.274Z,92.99
2022-12-11T02:44:47.381Z,92.33
2022-12-11T02:45:47.075Z,92.43
2022-12-11T02:46:47.214Z,92.52
2022-12-11T02:47:46.992Z,92.43
2022-12-11T02:48:46.842Z,92.43
2022-12-11T02:49:46.878Z,92.71
2022-12-11T02:50:47.117Z,93.09
2022-12-11T02:51:46.801Z,93.18
2022-12-11T02:52:46.822Z,93.66
2022-12-11T02:53:46.739Z,93.28
2022-12-11T02:54:46.541Z,93.47
2022-12-11T02:55:46.538Z,93.09
2022-12-11T02:56:46.548Z,92.90
2022-12-11T02:57:46.395Z,93.28
2022-12-11T02:58:46.677Z,93.04
2022-12-11T02:59:46.501Z,93.04
2022-12-11T03:00:46.333Z,93.51
2022-12-11T03:01:46.281Z,93.51
2022-12-11T03:02:46.214Z,93.61
2022-12-11T03:03:46.175Z,93.32
2022-12-11T03:04:46.288Z,93.13
2022-12-11T03:05:46.234Z,93.80
2022-12-11T03:06:46.047Z,94.08
2022-12-11T03:07:46.014Z,94.18
2022-12-11T03:08:46.015Z,93.89
2022-12-11T03:09:45.797Z,94.37
2022-12-11T03:10:45.951Z,94.08
2022-12-11T03:11:45.782Z,94.08
2022-12-11T03:12:47.054Z,94.27
2022-12-11T03:13:45.646Z,94.27
2022-12-11T03:14:45.703Z,94.65
2022-12-11T03:15:45.540Z,94.37
2022-12-11T03:16:45.495Z,94.46
2022-12-11T03:17:45.425Z,94.74
2022-12-11T03:18:45.571Z,94.56
2022-12-11T03:19:45.478Z,94.37
2022-12-11T03:20:45.251Z,94.37
2022-12-11T03:21:45.290Z,94.56
2022-12-11T03:22:45.345Z,95.12
2022-12-11T03:23:45.309Z,95.40
2022-12-11T03:24:45.113Z,95.31
2022-12-11T03:25:44.997Z,96.02
2022-12-11T03:26:45.117Z,95.88
2022-12-11T03:27:44.905Z,95.26
2022-12-11T03:28:44.937Z,93.75
2022-12-11T03:29:44.782Z,93.37
2022-12-11T03:30:45.044Z,92.52
2022-12-11T03:31:44.744Z,92.14
2022-12-11T03:32:44.681Z,91.96
2022-12-11T03:33:44.821Z,91.39
2022-12-11T03:34:44.573Z,91.67
2022-12-11T03:35:44.678Z,91.86
2022-12-11T03:36:44.428Z,91.48
2022-12-11T03:37:44.790Z,92.43
2022-12-11T03:38:44.340Z,92.24
2022-12-11T03:39:44.424Z,92.71
2022-12-11T03:40:44.255Z,93.09
2022-12-11T03:41:44.511Z,93.28
2022-12-11T03:42:44.130Z,93.37
2022-12-11T03:43:44.222Z,94.03
2022-12-11T03:44:44.116Z,93.28
2022-12-11T03:45:44.689Z,93.94
2022-12-11T03:46:44.008Z,93.84
2022-12-11T03:47:44.104Z,94.22
2022-12-11T03:48:44.053Z,95.07
2022-12-11T03:49:43.902Z,95.54
2022-12-11T03:50:43.966Z,95.17
2022-12-11T03:51:43.684Z,95.83
2022-12-11T03:52:46.017Z,95.73
2022-12-11T03:53:43.575Z,96.11
2022-12-11T03:54:43.511Z,96.02
2022-12-11T03:55:43.701Z,96.68
2022-12-11T03:56:43.561Z,96.68
2022-12-11T03:57:43.516Z,96.68
2022-12-11T03:58:43.314Z,96.02
2022-12-11T03:59:43.327Z,94.98
2022-12-11T04:00:43.327Z,93.18
2022-12-11T04:01:43.191Z,91.20
2022-12-11T04:03:12.655Z,88.74
2022-12-11T04:03:43.053Z,87.28
2022-12-11T04:04:43.463Z,86.43
2022-12-11T04:05:43.260Z,86.05
2022-12-11T04:06:42.920Z,86.05
2022-12-11T04:07:43.126Z,85.96
2022-12-11T04:08:42.806Z,86.15
2022-12-11T04:09:44.999Z,86.05
2022-12-11T04:10:42.724Z,86.62
2022-12-11T04:12:03.713Z,86.43
2022-12-11T04:12:42.705Z,87.37
2022-12-11T04:13:42.572Z,86.62
2022-12-11T04:14:42.612Z,87.52
2022-12-11T04:15:42.490Z,87.24
2022-12-11T04:16:43.451Z,87.62
2022-12-11T04:17:42.630Z,87.80
2022-12-11T04:18:42.333Z,88.28
2022-12-11T04:19:42.333Z,88.28
2022-12-11T04:20:42.185Z,87.99
2022-12-11T04:21:42.251Z,87.90
2022-12-11T04:22:42.298Z,87.62
2022-12-11T04:23:42.261Z,87.52
2022-12-11T04:24:41.986Z,86.86
2022-12-11T04:25:42.172Z,86.86
2022-12-11T04:26:41.922Z,86.38
2022-12-11T04:27:41.879Z,86.57
2022-12-11T04:28:41.871Z,87.14
2022-12-11T04:29:41.902Z,86.95
2022-12-11T04:30:41.724Z,87.24
2022-12-11T04:31:41.912Z,87.43
2022-12-11T04:32:41.646Z,87.99
2022-12-11T04:33:41.730Z,87.99
2022-12-11T04:34:41.660Z,88.46
2022-12-11T04:35:41.538Z,88.46
2022-12-11T04:36:41.366Z,88.84
2022-12-11T04:37:41.559Z,89.22
2022-12-11T04:38:41.310Z,89.59
2022-12-11T04:39:41.258Z,89.69
2022-12-11T04:40:41.293Z,90.45
2022-12-11T04:41:41.201Z,90.26
2022-12-11T04:42:41.116Z,90.12
2022-12-11T04:43:41.087Z,91.11
2022-12-11T04:44:40.963Z,91.01
2022-12-11T04:45:41.234Z,91.72
2022-12-11T04:46:40.934Z,91.16
2022-12-11T04:47:41.105Z,91.30
2022-12-11T04:48:40.730Z,91.91
2022-12-11T04:49:40.917Z,91.91
2022-12-11T04:50:40.644Z,91.91
2022-12-11T04:51:40.722Z,92.38
2022-12-11T04:52:40.529Z,92.66
2022-12-11T04:53:40.534Z,92.38
2022-12-11T04:54:40.591Z,92.47
2022-12-11T04:55:40.555Z,92.71
2022-12-11T04:56:40.324Z,92.71
2022-12-11T04:57:40.436Z,92.76
2022-12-11T04:58:40.272Z,92.10
2022-12-11T04:59:40.401Z,91.16
2022-12-11T05:00:40.249Z,90.40
2022-12-11T05:01:40.348Z,90.31
2022-12-11T05:02:40.047Z,90.31
2022-12-11T05:03:40.440Z,89.45
2022-12-11T05:04:40.038Z,89.83
2022-12-11T05:05:40.073Z,89.93
2022-12-11T05:06:40.068Z,89.64
2022-12-11T05:07:39.818Z,89.27
2022-12-11T05:08:39.772Z,89.36
2022-12-11T05:09:40.031Z,89.08
2022-12-11T05:10:39.652Z,88.98
2022-12-11T05:11:39.672Z,88.89
2022-12-11T05:12:39.534Z,88.32
2022-12-11T05:13:39.777Z,88.13
2022-12-11T05:14:39.398Z,87.48
2022-12-11T05:15:40.734Z,86.34
2022-12-11T05:16:39.309Z,85.96
2022-12-11T05:17:39.235Z,84.55
2022-12-11T05:18:39.260Z,84.64
2022-12-11T05:19:39.505Z,84.69
2022-12-11T05:20:39.232Z,84.79
2022-12-11T05:21:39.138Z,85.64
2022-12-11T05:22:38.985Z,86.02
2022-12-11T05:23:38.919Z,86.58
2022-12-11T05:24:38.926Z,86.21
2022-12-11T05:25:38.925Z,86.02
2022-12-11T05:26:38.811Z,87.15
2022-12-11T05:27:38.942Z,87.52
2022-12-11T05:28:38.708Z,87.81
2022-12-11T05:29:38.600Z,88.09
2022-12-11T05:30:38.811Z,88.84
2022-12-11T05:31:38.615Z,88.75
2022-12-11T05:32:38.637Z,89.32
2022-12-11T05:33:38.580Z,89.32
2022-12-11T05:34:38.436Z,89.98
2022-12-11T05:35:38.283Z,90.26
2022-12-11T05:36:38.292Z,90.07
2022-12-11T05:37:38.256Z,90.83
2022-12-11T05:38:38.263Z,91.25
2022-12-11T05:39:38.162Z,91.91
2022-12-11T05:40:38.040Z,92.10
2022-12-11T05:41:38.348Z,92.10
2022-12-11T05:42:38.033Z,92.47
2022-12-11T05:43:38.160Z,92.19
2022-12-11T05:44:37.901Z,91.44
2022-12-11T05:45:37.962Z,90.87
2022-12-11T05:46:37.749Z,90.59
2022-12-11T05:47:37.684Z,90.21
2022-12-11T05:48:37.664Z,90.12
2022-12-11T05:49:37.880Z,89.74
2022-12-11T05:50:37.494Z,89.36
2022-12-11T05:51:37.835Z,88.60
2022-12-11T05:52:37.388Z,88.28
2022-12-11T05:53:37.335Z,87.52
2022-12-11T05:54:37.544Z,87.43
2022-12-11T05:55:37.388Z,86.49
2022-12-11T05:56:37.755Z,87.05
2022-12-11T05:57:37.313Z,86.40
2022-12-11T05:58:37.069Z,86.77
2022-12-11T05:59:37.015Z,86.11
2022-12-11T06:03:47.192Z,85.07
2022-12-11T06:04:46.923Z,85.07
2022-12-11T06:05:46.732Z,85.17
2022-12-11T06:06:46.836Z,84.88
2022-12-11T06:07:46.693Z,85.22
2022-12-11T06:08:46.897Z,85.97
2022-12-11T06:09:46.545Z,86.16
2022-12-11T06:10:46.807Z,86.16
2022-12-11T06:11:46.694Z,86.63
2022-12-11T06:12:46.511Z,87.10
2022-12-11T06:13:46.377Z,87.01
2022-12-11T06:14:46.551Z,87.19
2022-12-11T06:15:46.303Z,87.86
2022-12-11T06:16:46.285Z,88.14
2022-12-11T06:17:46.086Z,88.52
2022-12-11T06:18:46.178Z,89.27
2022-12-11T06:19:45.980Z,89.27
2022-12-11T06:20:46.307Z,89.84
2022-12-11T06:21:45.878Z,90.22
2022-12-11T06:22:46.205Z,89.93
2022-12-11T06:23:45.852Z,89.27
2022-12-11T06:24:45.829Z,89.18
2022-12-11T06:25:45.670Z,89.46
2022-12-11T06:26:46.915Z,89.93
2022-12-11T06:27:45.910Z,90.03
2022-12-11T06:28:45.785Z,90.12
2022-12-11T06:29:45.446Z,89.56
2022-12-11T06:30:45.715Z,89.74
2022-12-11T06:31:45.403Z,88.80
2022-12-11T06:32:45.631Z,88.52
2022-12-11T06:33:45.371Z,88.14
2022-12-11T06:34:45.275Z,88.04
2022-12-11T06:35:45.116Z,88.14
2022-12-11T06:37:06.185Z,87.57
2022-12-11T06:37:45.061Z,88.33
2022-12-11T06:38:45.118Z,88.42
2022-12-11T06:39:52.956Z,88.71
2022-12-11T06:40:52.998Z,89.18
2022-12-11T06:41:46.965Z,89.27
2022-12-11T06:42:44.748Z,90.31
2022-12-11T06:43:45.100Z,90.41
2022-12-11T06:44:44.733Z,90.97
2022-12-11T06:45:44.761Z,91.25
2022-12-11T06:46:52.542Z,91.53
2022-12-11T06:47:44.770Z,91.67
2022-12-11T06:48:52.724Z,92.14
2022-12-11T06:49:55.106Z,92.14
2022-12-11T06:50:45.596Z,91.49
2022-12-11T06:51:44.302Z,91.49
2022-12-11T06:52:46.424Z,91.20
2022-12-11T06:53:44.155Z,91.49
2022-12-11T06:54:44.293Z,91.20
2022-12-11T06:55:44.103Z,91.20
2022-12-11T06:56:44.182Z,90.73
2022-12-11T06:57:44.357Z,90.26
2022-12-11T06:58:44.249Z,89.88
2022-12-11T06:59:43.832Z,89.51
2022-12-11T07:00:44.099Z,89.32
2022-12-11T07:01:43.863Z,89.13
2022-12-11T07:02:43.929Z,88.84
2022-12-11T07:03:43.686Z,88.94
2022-12-11T07:04:43.642Z,88.47
2022-12-11T07:05:43.774Z,89.03
2022-12-11T07:06:43.698Z,88.47
2022-12-11T07:07:43.558Z,89.03
2022-12-11T07:08:43.705Z,89.22
2022-12-11T07:09:43.424Z,89.32
2022-12-11T07:10:43.537Z,90.07
2022-12-11T07:11:43.191Z,90.36
2022-12-11T07:12:43.292Z,89.32
2022-12-11T07:13:43.166Z,88.75
2022-12-11T07:14:43.056Z,88.18
2022-12-11T07:15:43.106Z,87.81
2022-12-11T07:16:42.989Z,87.52
2022-12-11T07:17:43.120Z,87.24
2022-12-11T07:18:43.293Z,87.43
2022-12-11T07:19:43.101Z,87.43
2022-12-11T07:20:42.716Z,87.24
2022-12-11T07:21:42.741Z,87.24
2022-12-11T07:22:46.385Z,87.52
2022-12-11T07:23:42.758Z,87.81
2022-12-11T07:24:42.715Z,87.62
2022-12-11T07:25:42.579Z,87.43
2022-12-11T07:26:42.407Z,86.30
2022-12-11T07:27:42.641Z,86.16
2022-12-11T07:28:42.399Z,85.97
2022-12-11T07:29:42.233Z,85.69
2022-12-11T07:30:42.809Z,85.22
2022-12-11T07:31:42.209Z,84.65
2022-12-11T07:32:42.288Z,84.37
2022-12-11T07:33:42.105Z,84.84
2022-12-11T07:34:44.128Z,84.75
2022-12-11T07:35:41.959Z,84.65
2022-12-11T07:36:42.036Z,84.47
2022-12-11T07:37:41.826Z,84.56
2022-12-11T07:38:42.047Z,84.47
2022-12-11T07:39:41.769Z,84.65
2022-12-11T07:40:41.873Z,85.22
2022-12-11T07:41:41.594Z,85.69
2022-12-11T07:42:46.132Z,85.83
2022-12-11T07:43:41.509Z,86.40
2022-12-11T07:44:41.578Z,86.11
2022-12-11T07:45:41.410Z,86.49
2022-12-11T07:46:41.618Z,86.02
2022-12-11T07:47:41.270Z,86.68
2022-12-11T07:48:41.404Z,86.58
2022-12-11T07:49:41.168Z,86.30
2022-12-11T07:50:42.457Z,86.02
2022-12-11T07:51:41.059Z,85.92
2022-12-11T07:52:41.006Z,86.77
2022-12-11T07:53:40.954Z,86.68
2022-12-11T07:54:41.036Z,86.02
2022-12-11T07:55:40.854Z,85.73
2022-12-11T07:56:43.792Z,84.51
2022-12-11T07:57:40.740Z,83.18
2022-12-11T07:58:40.686Z,82.71
2022-12-11T07:59:40.640Z,81.77
2022-12-11T08:00:40.885Z,81.02
2022-12-11T08:01:40.630Z,80.73
2022-12-11T08:02:40.739Z,80.45
2022-12-11T08:03:40.426Z,80.54
2022-12-11T08:04:40.369Z,80.17
2022-12-11T08:05:40.508Z,79.98
2022-12-11T08:06:40.286Z,80.41
2022-12-11T08:07:40.320Z,80.32
2022-12-11T08:08:40.510Z,80.60
2022-12-11T08:09:40.343Z,81.16
2022-12-11T08:10:40.343Z,81.16
2022-12-11T08:11:40.002Z,81.45
2022-12-11T08:12:40.159Z,81.26
2022-12-11T08:13:39.903Z,81.45
2022-12-11T08:14:40.165Z,81.35
2022-12-11T08:15:39.865Z,81.35
2022-12-11T08:16:39.767Z,81.35
2022-12-11T08:17:40.263Z,81.63
2022-12-11T08:18:39.916Z,81.35
2022-12-11T08:19:39.788Z,81.26
2022-12-11T08:20:39.592Z,82.34
2022-12-11T08:21:39.610Z,82.62
2022-12-11T08:22:39.411Z,82.43
2022-12-11T08:23:39.352Z,82.81
2022-12-11T08:24:39.625Z,82.90
2022-12-11T08:25:39.293Z,82.62
2022-12-11T08:26:39.437Z,83.18
2022-12-11T08:27:39.189Z,83.00
2022-12-11T08:28:39.099Z,82.62
2022-12-11T08:29:39.112Z,82.90
2022-12-11T08:30:39.152Z,83.75
2022-12-11T08:31:39.061Z,83.37
2022-12-11T08:32:38.908Z,83.18
2022-12-11T08:33:39.897Z,83.28
2022-12-11T08:34:38.775Z,84.13
2022-12-11T08:35:38.781Z,83.84
2022-12-11T08:36:38.889Z,84.41
2022-12-11T08:37:38.621Z,84.60
2022-12-11T08:38:38.698Z,84.69
2022-12-11T08:39:38.553Z,84.51
2022-12-11T08:40:38.461Z,84.74
2022-12-11T08:41:38.599Z,84.74
2022-12-11T08:42:38.578Z,84.74
2022-12-11T08:43:38.331Z,84.74
2022-12-11T08:44:38.283Z,84.45
2022-12-11T08:45:39.363Z,84.55
2022-12-11T08:46:38.219Z,84.74
2022-12-11T08:47:38.384Z,84.36
2022-12-11T08:48:38.208Z,83.89
2022-12-11T08:49:38.196Z,83.98
2022-12-11T08:50:38.094Z,83.33
2022-12-11T08:51:38.205Z,83.61
2022-12-11T08:52:37.833Z,82.76
2022-12-11T08:53:37.861Z,81.72
2022-12-11T08:54:37.774Z,80.87
2022-12-11T08:55:37.797Z,80.77
2022-12-11T08:56:37.862Z,80.11
2022-12-11T08:57:37.583Z,79.83
2022-12-11T08:58:37.532Z,79.74
2022-12-11T08:59:37.644Z,79.64
2022-12-11T09:00:37.514Z,79.93
2022-12-11T09:01:37.679Z,80.21
2022-12-11T09:02:37.338Z,79.93
2022-12-11T09:03:37.496Z,80.40
2022-12-11T09:04:38.293Z,80.77
2022-12-11T09:05:37.207Z,80.82
2022-12-11T09:06:37.333Z,80.82
2022-12-11T09:07:37.065Z,80.91
2022-12-11T09:08:37.346Z,80.82
2022-12-11T09:09:37.093Z,80.15
2022-12-11T09:10:36.950Z,80.44
2022-12-11T09:11:37.128Z,79.21
2022-12-11T09:12:36.812Z,78.64
2022-12-11T09:13:37.959Z,79.21
2022-12-11T09:14:39.042Z,79.11
2022-12-11T09:15:36.697Z,78.74
2022-12-11T09:16:45.144Z,78.83
2022-12-11T09:17:46.191Z,79.30
2022-12-11T09:18:59.701Z,79.49
2022-12-11T09:19:44.232Z,79.68
2022-12-11T09:20:44.266Z,80.44
2022-12-11T09:21:37.386Z,80.34
2022-12-11T09:22:44.302Z,80.82
2022-12-11T09:23:44.770Z,80.25
2022-12-11T09:24:43.873Z,80.34
2022-12-11T09:25:44.425Z,79.78
2022-12-11T09:26:46.851Z,78.83
2022-12-11T09:27:36.048Z,78.27
2022-12-11T09:28:46.610Z,77.51
2022-12-11T09:29:44.062Z,77.04
2022-12-11T09:30:44.119Z,76.09
2022-12-11T09:31:44.110Z,76.19
2022-12-11T09:32:37.862Z,75.81
2022-12-11T09:33:44.149Z,75.90
2022-12-11T09:34:36.855Z,75.62
2022-12-11T09:35:35.645Z,75.34
2022-12-11T09:36:35.844Z,75.62
2022-12-11T09:37:35.526Z,75.15
2022-12-11T09:38:35.459Z,75.34
2022-12-11T09:39:35.418Z,74.77
2022-12-11T09:40:35.513Z,74.77
2022-12-11T09:41:35.418Z,74.96
2022-12-11T09:42:35.507Z,75.28
2022-12-11T09:43:35.510Z,75.76
2022-12-11T09:44:35.143Z,76.23
2022-12-11T09:45:35.322Z,76.14
2022-12-11T09:46:35.176Z,76.89
2022-12-11T09:47:35.116Z,76.70
2022-12-11T09:48:34.953Z,77.08
2022-12-11T09:49:35.134Z,76.70
2022-12-11T09:50:35.130Z,77.45
2022-12-11T09:51:34.818Z,77.59
2022-12-11T09:52:35.143Z,78.34
2022-12-11T09:53:34.752Z,78.67
2022-12-11T09:54:34.794Z,80.46
2022-12-11T09:55:34.605Z,81.17
2022-12-11T09:56:34.542Z,82.12
2022-12-11T09:57:34.790Z,82.25
2022-12-11T09:58:34.526Z,82.25
2022-12-11T09:59:34.600Z,83.52
2022-12-11T10:00:34.667Z,83.33
2022-12-11T10:01:34.627Z,83.09
2022-12-11T10:02:34.300Z,82.05
2022-12-11T10:03:34.422Z,81.52
2022-12-11T10:04:34.164Z,80.00
2022-12-11T10:05:34.428Z,78.67
2022-12-11T10:06:34.067Z,78.15
2022-12-11T10:07:34.434Z,78.24
2022-12-11T10:08:33.971Z,78.28
2022-12-11T10:09:34.044Z,77.62
2022-12-11T10:10:33.934Z,76.80
2022-12-11T10:11:34.058Z,75.38
2022-12-11T10:12:33.797Z,74.43
2022-12-11T10:13:33.944Z,74.33
2022-12-11T10:14:33.741Z,73.42
2022-12-11T10:15:33.734Z,71.62
2022-12-11T10:16:33.621Z,70.19
2022-12-11T10:17:33.894Z,71.14
2022-12-11T10:18:33.560Z,72.51
2022-12-11T10:19:33.484Z,73.18
2022-12-11T10:20:33.439Z,72.03
2022-12-11T10:21:33.540Z,71.37
2022-12-11T10:22:33.341Z,69.50
2022-12-11T10:23:33.597Z,68.36
2022-12-11T10:25:09.288Z,67.22
2022-12-11T10:25:33.216Z,65.45
2022-12-11T10:26:33.346Z,64.69
2022-12-11T10:27:33.126Z,64.69
2022-12-11T10:28:33.382Z,66.11
2022-12-11T10:29:33.044Z,66.97
2022-12-11T10:30:34.608Z,65.86
2022-12-11T10:31:33.241Z,65.00
2022-12-11T10:32:32.909Z,66.81
2022-12-11T10:33:33.003Z,65.89
2022-12-11T10:34:32.820Z,65.03
2022-12-11T10:35:33.002Z,64.40
2022-12-11T10:36:33.069Z,62.97
2022-12-11T10:37:32.697Z,61.64
2022-12-11T10:38:32.648Z,61.86
2022-12-11T10:39:32.830Z,61.96
2022-12-11T10:40:32.565Z,61.00
2022-12-11T10:41:32.865Z,59.00
2022-12-11T10:42:32.510Z,58.26
2022-12-11T10:43:32.444Z,59.70
2022-12-11T10:44:32.677Z,59.89
2022-12-11T10:45:32.356Z,58.07
2022-12-11T10:46:32.578Z,56.58
2022-12-11T10:47:32.308Z,54.00
2022-12-11T10:48:33.718Z,50.85
2022-12-11T10:49:32.193Z,48.37
2022-12-11T10:50:32.294Z,46.75
2022-12-11T10:51:32.110Z,45.68
2022-12-11T10:52:32.121Z,45.39
2022-12-11T10:53:32.029Z,45.37
2022-12-11T10:54:32.338Z,45.65
2022-12-11T10:55:32.175Z,46.04
2022-12-11T10:56:33.976Z,46.51
2022-12-11T10:57:39.696Z,47.18
2022-12-11T10:58:31.942Z,47.75
2022-12-11T10:59:31.776Z,47.66
2022-12-11T11:00:31.961Z,47.78
2022-12-11T11:01:31.794Z,47.30
2022-12-11T11:02:32.036Z,47.58
2022-12-11T11:03:31.608Z,47.58
2022-12-11T11:04:32.812Z,47.58
2022-12-11T11:05:31.535Z,46.92
2022-12-11T11:06:39.149Z,46.18
2022-12-11T11:07:31.503Z,45.89
2022-12-11T11:08:31.435Z,45.89
2022-12-11T11:09:32.638Z,46.58
2022-12-11T11:10:31.323Z,46.20
2022-12-11T11:11:32.017Z,45.82
2022-12-11T11:12:31.438Z,45.53
2022-12-11T11:13:31.200Z,45.37
2022-12-11T11:14:31.382Z,45.65
2022-12-11T11:15:31.121Z,44.89
2022-12-11T11:16:31.220Z,43.84
2022-12-11T11:17:34.905Z,43.66
2022-12-11T11:18:30.999Z,44.34
2022-12-11T11:19:31.174Z,43.00
2022-12-11T11:20:30.974Z,42.07
2022-12-11T11:21:30.984Z,41.30
2022-12-11T11:22:30.839Z,40.92
2022-12-11T11:23:30.997Z,40.63
2022-12-11T11:24:30.799Z,40.92
2022-12-11T11:25:30.715Z,41.68
2022-12-11T11:26:56.304Z,42.25
2022-12-11T11:27:30.832Z,43.21
2022-12-11T11:28:30.593Z,42.47
2022-12-11T11:29:30.632Z,41.61
2022-12-11T11:30:30.515Z,41.63
2022-12-11T11:31:30.774Z,41.82
2022-12-11T11:32:30.438Z,41.53
2022-12-11T11:33:30.462Z,40.95
2022-12-11T11:34:30.357Z,40.48
2022-12-11T11:35:30.530Z,41.17
2022-12-11T11:36:30.276Z,40.41
2022-12-11T11:37:30.284Z,40.59
2022-12-11T11:38:30.203Z,39.92
2022-12-11T11:39:30.322Z,40.12
2022-12-11T11:40:30.123Z,39.83
2022-12-11T11:41:30.312Z,39.45
2022-12-11T11:42:30.043Z,39.83
2022-12-11T11:43:30.122Z,39.45
2022-12-11T11:44:29.996Z,39.43
2022-12-11T11:45:30.140Z,38.76
2022-12-11T11:46:29.981Z,39.40
2022-12-11T11:47:29.840Z,38.54
2022-12-11T11:48:29.800Z,39.00
2022-12-11T11:49:29.776Z,39.47
2022-12-11T11:50:29.831Z,39.54
2022-12-11T11:51:29.786Z,39.92
2022-12-11T11:52:29.650Z,40.57
2022-12-11T11:53:29.596Z,40.86
2022-12-11T11:54:29.553Z,41.41
2022-12-11T11:55:29.617Z,41.98
2022-12-11T11:56:29.671Z,42.55
2022-12-11T11:57:29.515Z,43.22
2022-12-11T11:58:29.423Z,43.22
2022-12-11T11:59:40.291Z,43.49
2022-12-11T12:00:41.338Z,43.77
2022-12-11T12:01:37.379Z,43.87
2022-12-11T12:02:37.464Z,44.25
2022-12-11T12:03:29.250Z,44.15
2022-12-11T12:04:43.726Z,44.13
2022-12-11T12:05:36.987Z,44.13
2022-12-11T12:06:37.026Z,44.42
2022-12-11T12:07:37.058Z,45.47
2022-12-11T12:08:29.134Z,45.28
2022-12-11T12:09:36.630Z,45.47
2022-12-11T12:10:37.138Z,45.84
2022-12-11T12:11:28.896Z,45.35
2022-12-11T12:12:36.681Z,45.70
2022-12-11T12:13:51.252Z,45.89
2022-12-11T12:14:51.623Z,47.04
2022-12-11T12:15:36.759Z,47.32
2022-12-11T12:16:53.346Z,47.32
2022-12-11T12:17:36.424Z,48.08
2022-12-11T12:18:28.552Z,47.99
2022-12-11T12:19:28.535Z,48.25
2022-12-11T12:20:28.431Z,48.54
2022-12-11T12:21:28.556Z,48.44
2022-12-11T12:22:28.349Z,49.13
2022-12-11T12:23:34.912Z,49.51
2022-12-11T12:24:28.437Z,49.61
2022-12-11T12:25:28.379Z,49.13
2022-12-11T12:26:28.172Z,48.39
2022-12-11T12:27:51.463Z,48.30
2022-12-11T12:28:28.084Z,48.02
2022-12-11T12:29:28.202Z,47.82
2022-12-11T12:30:28.010Z,47.92
2022-12-11T12:31:28.053Z,48.21
2022-12-11T12:32:27.959Z,48.02
2022-12-11T12:33:28.036Z,47.66
2022-12-11T12:34:28.039Z,47.11
2022-12-11T12:35:27.779Z,47.11
2022-12-11T12:36:27.898Z,46.08
2022-12-11T12:37:27.705Z,45.51
2022-12-11T12:38:27.660Z,45.51
2022-12-11T12:39:27.617Z,44.87
2022-12-11T12:40:27.570Z,44.22
2022-12-11T12:41:27.675Z,44.31
2022-12-11T12:42:27.517Z,43.09
2022-12-11T12:43:27.491Z,42.43
2022-12-11T12:44:27.397Z,41.85
2022-12-11T12:45:27.479Z,41.20
2022-12-11T12:46:27.403Z,41.01
2022-12-11T12:47:27.274Z,40.63
2022-12-11T12:48:27.419Z,40.25
2022-12-11T12:49:27.184Z,40.44
2022-12-11T12:50:27.336Z,40.92
2022-12-11T12:51:27.144Z,41.01
2022-12-11T12:52:27.072Z,40.34
2022-12-11T12:53:27.146Z,40.08
2022-12-11T12:54:27.046Z,39.33
2022-12-11T12:55:27.981Z,38.95